.
WxDataArchive / Data Records for 2009-11-25
2009-11-24 November 2009 2009-11-26

Data Records for Wednesday, 25 November 2009

Time	Temp	Chill	HIndex	Humid	Dewpt	 Wind 	HiWind	WindDir	Rain 	Barom 
-----	----	-----	------	-----	-----	------	------	-------	-----	----- 
00:00	49.2	49.2	49.2	95	47.8	2	5	112	0.01	29.868 
00:05	49.2	49.2	49.2	95	47.8	1	4	112	0.00	29.868 
00:10	49.4	49.4	49.4	95	48.0	2	6	90	0.01	29.868 
00:15	49.4	49.4	49.4	95	48.0	2	5	90	0.01	29.860 
00:20	49.4	49.4	49.4	95	48.0	2	4	112	0.01	29.860 
00:25	49.4	49.4	49.4	95	48.0	2	6	112	0.00	29.860 
00:30	49.4	49.4	49.4	95	48.0	2	5	112	0.00	29.850 
00:35	49.2	49.2	49.2	95	47.8	1	5	68	0.00	29.850 
00:40	49.2	49.2	49.2	95	47.8	2	4	68	0.00	29.850 
00:45	49.2	49.2	49.2	95	47.8	1	5	90	0.01	29.841 
00:50	49.2	49.2	49.2	95	47.8	1	4	112	0.00	29.841 
00:55	49.2	49.2	49.2	95	47.8	2	5	68	0.00	29.841 
01:00	49.2	49.2	49.2	95	47.8	2	5	68	0.00	29.836 
01:05	49.2	49.2	49.2	95	47.8	1	4	90	0.00	29.836 
01:10	49.2	49.2	49.2	95	47.8	1	5	90	0.00	29.836 
01:15	49.2	49.2	49.2	95	47.8	2	4	90	0.00	29.820 
01:20	49.2	49.2	49.2	95	47.8	2	4	90	0.00	29.820 
01:25	49.2	49.2	49.2	95	47.8	2	6	112	0.00	29.820 
01:30	49.2	49.2	49.2	94	47.5	2	7	112	0.00	29.816 
01:35	49.2	49.2	49.2	94	47.5	1	4	90	0.00	29.816 
01:40	49.2	49.2	49.2	94	47.5	2	5	90	0.00	29.816 
01:45	49.2	49.2	49.2	94	47.5	1	5	90	0.00	29.816 
01:50	49.2	49.2	49.2	94	47.5	1	3	90	0.00	29.816 
01:55	49.2	49.2	49.2	94	47.5	1	6	90	0.00	29.816 
02:00	49.2	49.2	49.2	94	47.5	2	5	112	0.00	29.813 
02:05	49.4	49.4	49.4	94	47.7	1	4	112	0.00	29.813 
02:10	49.2	49.2	49.2	94	47.5	2	6	112	0.00	29.813 
02:15	49.4	49.4	49.4	93	47.5	1	4	90	0.00	29.805 
02:20	49.4	49.4	49.4	93	47.5	2	9	68	0.00	29.805 
02:25	49.4	49.4	49.4	93	47.5	1	3	135	0.00	29.805 
02:30	49.4	49.4	49.4	93	47.5	1	3	112	0.00	29.808 
02:35	49.4	49.4	49.4	93	47.5	1	6	68	0.00	29.808 
02:40	49.4	49.4	49.4	93	47.5	1	4	112	0.00	29.808 
02:45	49.4	49.4	49.4	93	47.5	1	4	135	0.00	29.807 
02:50	49.4	49.4	49.4	93	47.5	2	5	0	0.00	29.807 
02:55	49.4	49.4	49.4	93	47.5	1	10	135	0.00	29.807 
03:00	49.4	49.4	49.4	93	47.5	1	5	45	0.00	29.803 
03:05	49.4	49.4	49.4	93	47.5	1	6	22	0.00	29.803 
03:10	49.4	49.4	49.4	92	47.2	1	5	0	0.00	29.803 
03:15	49.4	49.4	49.4	92	47.2	0	5	270	0.00	29.800 
03:20	49.2	49.2	49.2	92	47.0	1	4	315	0.00	29.800 
03:25	49.2	49.2	49.2	92	47.0	1	3	22	0.00	29.800 
03:30	49.2	49.2	49.2	92	47.0	0	3	248	0.00	29.799 
03:35	49.2	49.2	49.2	92	47.0	0	3	248	0.00	29.799 
03:40	49.2	49.2	49.2	92	47.0	1	4	248	0.00	29.799 
03:45	49.2	49.2	49.2	92	47.0	1	4	270	0.00	29.797 
03:50	49.2	49.2	49.2	92	47.0	1	5	248	0.00	29.797 
03:55	49.2	49.2	49.2	92	47.0	0	5	315	0.00	29.797 
04:00	49.2	49.2	49.2	92	47.0	1	7	248	0.00	29.792 
04:05	49.1	49.1	49.1	92	46.9	1	3	248	0.00	29.792 
04:10	49.1	49.1	49.1	92	46.9	1	4	248	0.00	29.792 
04:15	49.1	49.1	49.1	91	46.6	0	3	315	0.00	29.784 
04:20	49.1	49.1	49.1	91	46.6	1	3	248	0.00	29.784 
04:25	48.9	48.9	48.9	91	46.4	1	3	22	0.00	29.784 
04:30	48.9	48.9	48.9	90	46.1	1	3	202	0.00	29.777 
04:35	48.9	48.9	48.9	90	46.1	1	3	292	0.00	29.777 
04:40	48.9	48.9	48.9	90	46.1	1	5	225	0.00	29.777 
04:45	48.8	48.8	48.8	89	45.7	1	9	248	0.00	29.777 
04:50	48.8	48.8	48.8	89	45.7	1	6	248	0.00	29.777 
04:55	48.8	48.8	48.8	88	45.4	1	4	248	0.00	29.777 
05:00	48.6	48.6	48.6	88	45.2	1	4	248	0.00	29.779 
05:05	48.6	48.6	48.6	88	45.2	2	5	248	0.00	29.779 
05:10	48.6	48.6	48.6	87	44.9	1	6	248	0.00	29.779 
05:15	48.6	48.6	48.6	87	44.9	2	5	248	0.00	29.778 
05:20	48.6	48.6	48.6	86	44.6	2	5	248	0.00	29.778 
05:25	48.5	48.5	48.5	85	44.2	2	7	248	0.00	29.778 
05:30	48.5	48.5	48.5	85	44.2	1	5	248	0.00	29.777 
05:35	48.3	48.3	48.3	85	44.0	1	3	248	0.00	29.777 
05:40	48.3	48.3	48.3	84	43.7	2	5	248	0.00	29.777 
05:45	48.2	48.2	48.2	84	43.6	2	6	248	0.00	29.776 
05:50	48.2	48.2	48.2	83	43.3	2	7	248	0.00	29.776 
05:55	48.2	48.2	48.2	83	43.3	2	6	248	0.00	29.776 
06:00	48.2	48.2	48.2	83	43.3	2	6	248	0.00	29.778 
06:05	48.2	48.2	48.2	82	43.0	3	9	248	0.00	29.778 
06:10	48.0	48.0	48.0	82	42.8	2	8	248	0.00	29.778 
06:15	48.0	46.6	48.0	81	42.5	4	11	248	0.00	29.775 
06:20	48.0	48.0	48.0	81	42.5	2	9	248	0.00	29.775 
06:25	47.9	47.9	47.9	80	42.0	2	6	225	0.00	29.775 
06:30	47.7	47.7	47.7	80	41.8	2	9	248	0.00	29.774 
06:35	47.6	47.6	47.6	79	41.4	2	6	248	0.00	29.774 
06:40	47.6	46.1	47.6	78	41.1	4	9	248	0.00	29.774 
06:45	47.4	45.9	47.4	78	40.9	4	10	248	0.00	29.782 
06:50	47.3	45.8	47.3	77	40.5	4	12	248	0.00	29.782 
06:55	47.3	47.3	47.3	77	40.5	3	10	248	0.00	29.782 
07:00	47.1	45.5	47.1	77	40.3	4	10	248	0.00	29.784 
07:05	47.1	45.5	47.1	78	40.6	4	12	248	0.00	29.784 
07:10	47.0	45.4	47.0	78	40.5	4	11	248	0.00	29.784 
07:15	47.0	47.0	47.0	78	40.5	3	6	248	0.00	29.781 
07:20	46.8	46.8	46.8	79	40.6	3	7	248	0.00	29.781 
07:25	46.8	46.8	46.8	79	40.6	3	11	248	0.00	29.781 
07:30	46.7	46.7	46.7	79	40.5	3	7	248	0.00	29.781 
07:35	46.7	44.3	46.7	79	40.5	5	14	270	0.00	29.781 
07:40	46.7	45.1	46.7	79	40.5	4	10	248	0.00	29.781 
07:45	46.5	44.1	46.5	79	40.3	5	14	248	0.00	29.780 
07:50	46.5	46.5	46.5	79	40.3	3	11	248	0.00	29.780 
07:55	46.4	44.7	46.4	80	40.6	4	9	248	0.00	29.780 
08:00	46.4	44.7	46.4	80	40.6	4	10	248	0.00	29.781 
08:05	46.2	46.2	46.2	80	40.4	3	9	248	0.00	29.781 
08:10	46.2	44.5	46.2	81	40.7	4	12	225	0.00	29.781 
08:15	46.2	43.1	46.2	81	40.7	6	13	248	0.00	29.787 
08:20	46.2	46.2	46.2	81	40.7	3	10	248	0.00	29.787 
08:25	46.2	43.8	46.2	81	40.7	5	14	248	0.00	29.787 
08:30	46.1	43.6	46.1	81	40.6	5	12	270	0.00	29.788 
08:35	46.1	44.4	46.1	81	40.6	4	13	248	0.00	29.788 
08:40	46.1	44.4	46.1	82	40.9	4	13	248	0.00	29.788 
08:45	46.1	46.1	46.1	82	40.9	3	9	248	0.00	29.787 
08:50	46.1	44.4	46.1	82	40.9	4	13	248	0.00	29.787 
08:55	46.1	44.4	46.1	82	40.9	4	9	248	0.00	29.787 
09:00	46.1	44.4	46.1	83	41.2	4	8	270	0.00	29.787 
09:05	46.1	44.4	46.1	83	41.2	4	10	248	0.00	29.787 
09:10	46.2	43.8	46.2	83	41.3	5	18	270	0.00	29.787 
09:15	46.2	44.5	46.2	82	41.0	4	12	270	0.00	29.785 
09:20	46.2	44.5	46.2	82	41.0	4	10	270	0.00	29.785 
09:25	46.2	44.5	46.2	82	41.0	4	11	248	0.00	29.785 
09:30	46.2	44.5	46.2	82	41.0	4	11	248	0.00	29.784 
09:35	46.2	46.2	46.2	83	41.3	3	10	270	0.00	29.784 
09:40	46.1	43.6	46.1	83	41.2	5	18	248	0.00	29.784 
09:45	46.0	42.9	46.0	83	41.1	6	14	248	0.00	29.786 
09:50	46.1	43.6	46.1	83	41.2	5	13	270	0.00	29.786 
09:55	46.2	44.5	46.2	83	41.3	4	13	248	0.00	29.786 
10:00	46.2	44.5	46.2	83	41.3	4	7	248	0.00	29.789 
10:05	46.2	44.5	46.2	82	41.0	4	12	248	0.00	29.789 
10:10	46.2	46.2	46.2	83	41.3	3	9	270	0.00	29.789 
10:15	46.2	44.5	46.2	83	41.3	4	13	270	0.00	29.789 
10:20	46.1	44.4	46.1	83	41.2	4	12	248	0.00	29.789 
10:25	46.1	46.1	46.1	83	41.2	3	13	270	0.00	29.789 
10:30	46.1	46.1	46.1	83	41.2	3	10	248	0.00	29.789 
10:35	46.1	46.1	46.1	84	41.5	3	10	248	0.00	29.789 
10:40	46.1	44.4	46.1	84	41.5	4	9	248	0.00	29.789 
10:45	46.0	46.0	46.0	86	42.0	3	10	248	0.00	29.789 
10:50	46.0	46.0	46.0	87	42.4	2	11	248	0.00	29.789 
10:55	45.8	45.8	45.8	87	42.2	3	6	248	0.00	29.789 
11:00	45.7	43.9	45.7	88	42.4	4	13	248	0.00	29.789 
11:05	45.8	45.8	45.8	88	42.5	3	9	248	0.00	29.789 
11:10	45.8	45.8	45.8	88	42.5	3	11	270	0.00	29.789 
11:15	45.7	45.7	45.7	87	42.1	3	10	270	0.00	29.788 
11:20	45.7	45.7	45.7	88	42.4	3	13	248	0.00	29.788 
11:25	45.5	43.7	45.5	88	42.2	4	11	248	0.00	29.788 
11:30	45.4	45.4	45.4	89	42.3	3	9	248	0.00	29.789 
11:35	45.2	45.2	45.2	90	42.4	3	12	248	0.00	29.789 
11:40	45.2	45.2	45.2	90	42.4	3	8	248	0.00	29.789 
11:45	45.1	45.1	45.1	91	42.6	3	9	248	0.00	29.788 
11:50	45.1	45.1	45.1	91	42.6	3	7	248	0.00	29.788 
11:55	45.1	45.1	45.1	92	42.9	3	9	248	0.00	29.788 
12:00	45.1	45.1	45.1	92	42.9	3	9	248	0.00	29.781 
12:05	45.1	45.1	45.1	92	42.9	3	6	248	0.00	29.781 
12:10	44.9	43.0	44.9	92	42.7	4	9	248	0.00	29.781 
12:15	44.9	44.9	44.9	93	43.0	3	7	225	0.00	29.781 
12:20	44.9	44.9	44.9	93	43.0	3	9	248	0.00	29.781 
12:25	45.1	45.1	45.1	93	43.2	3	10	248	0.00	29.781 
12:30	45.1	45.1	45.1	93	43.2	3	9	225	0.00	29.781 
12:35	45.2	43.3	45.2	93	43.3	4	11	270	0.00	29.781 
12:40	45.2	45.2	45.2	93	43.3	3	6	225	0.01	29.781 
12:45	45.4	45.4	45.4	93	43.5	3	7	248	0.00	29.775 
12:50	45.5	45.5	45.5	94	43.9	3	10	270	0.00	29.775 
12:55	45.8	45.8	45.8	94	44.2	3	9	248	0.00	29.775 
13:00	46.0	46.0	46.0	94	44.4	3	7	270	0.00	29.774 
13:05	45.8	44.0	45.8	94	44.2	4	10	248	0.00	29.774 
13:10	45.8	45.8	45.8	94	44.2	2	4	248	0.00	29.774 
13:15	45.8	45.8	45.8	94	44.2	2	9	248	0.00	29.777 
13:20	45.7	43.9	45.7	94	44.1	4	9	248	0.00	29.777 
13:25	45.7	45.7	45.7	94	44.1	3	11	248	0.01	29.777 
13:30	45.7	45.7	45.7	94	44.1	3	9	248	0.00	29.783 
13:35	45.8	45.8	45.8	94	44.2	3	10	248	0.00	29.783 
13:40	46.0	46.0	46.0	94	44.4	3	9	248	0.00	29.783 
13:45	46.1	46.1	46.1	94	44.5	3	12	248	0.00	29.782 
13:50	46.1	46.1	46.1	94	44.5	2	6	248	0.00	29.782 
13:55	46.1	46.1	46.1	94	44.5	3	11	248	0.00	29.782 
14:00	46.2	46.2	46.2	94	44.6	1	4	248	0.00	29.786 
14:05	46.4	46.4	46.4	93	44.5	3	6	248	0.00	29.786 
14:10	46.7	46.7	46.7	93	44.8	2	9	270	0.00	29.786 
14:15	46.8	46.8	46.8	93	44.9	2	6	248	0.00	29.785 
14:20	47.1	47.1	47.1	93	45.2	3	9	248	0.00	29.785 
14:25	47.3	47.3	47.3	92	45.1	1	5	248	0.00	29.785 
14:30	47.4	47.4	47.4	92	45.2	2	6	248	0.00	29.784 
14:35	47.4	47.4	47.4	92	45.2	2	5	248	0.00	29.784 
14:40	47.4	47.4	47.4	91	44.9	2	6	225	0.00	29.784 
14:45	47.6	47.6	47.6	91	45.1	1	4	248	0.00	29.787 
14:50	47.7	47.7	47.7	91	45.2	1	5	225	0.00	29.787 
14:55	47.7	47.7	47.7	90	44.9	1	6	225	0.00	29.787 
15:00	47.7	47.7	47.7	90	44.9	1	5	248	0.00	29.790 
15:05	47.7	47.7	47.7	90	44.9	2	6	248	0.00	29.790 
15:10	47.9	47.9	47.9	89	44.8	1	5	248	0.00	29.790 
15:15	47.9	47.9	47.9	89	44.8	2	6	270	0.00	29.798 
15:20	47.9	47.9	47.9	89	44.8	2	5	248	0.00	29.798 
15:25	47.9	47.9	47.9	89	44.8	2	5	248	0.00	29.798 
15:30	47.9	47.9	47.9	88	44.5	2	4	248	0.00	29.803 
15:35	47.9	47.9	47.9	88	44.5	3	6	248	0.00	29.803 
15:40	48.0	48.0	48.0	87	44.3	3	7	248	0.00	29.803 
15:45	48.0	48.0	48.0	87	44.3	3	7	248	0.00	29.807 
15:50	48.0	48.0	48.0	86	44.0	3	6	248	0.00	29.807 
15:55	48.0	48.0	48.0	86	44.0	2	5	248	0.00	29.807 
16:00	47.9	47.9	47.9	85	43.6	2	7	248	0.00	29.804 
16:05	47.9	47.9	47.9	85	43.6	2	5	248	0.00	29.804 
16:10	47.9	47.9	47.9	85	43.6	3	10	248	0.00	29.804 
16:15	47.9	47.9	47.9	85	43.6	2	9	248	0.00	29.803 
16:20	47.9	47.9	47.9	85	43.6	1	3	248	0.00	29.803 
16:25	47.9	47.9	47.9	85	43.6	2	7	248	0.00	29.803 
16:30	47.9	47.9	47.9	85	43.6	2	6	225	0.00	29.806 
16:35	47.9	47.9	47.9	85	43.6	2	6	225	0.00	29.806 
16:40	47.9	47.9	47.9	84	43.3	2	7	248	0.00	29.806 
16:45	47.9	47.9	47.9	84	43.3	1	5	248	0.00	29.809 
16:50	47.7	47.7	47.7	84	43.1	2	6	248	0.00	29.809 
16:55	47.7	47.7	47.7	84	43.1	1	5	248	0.00	29.809 
17:00	47.7	47.7	47.7	85	43.4	1	5	248	0.00	29.810 
17:05	47.6	47.6	47.6	85	43.3	2	4	248	0.00	29.810 
17:10	47.6	47.6	47.6	85	43.3	1	4	248	0.00	29.810 
17:15	47.6	47.6	47.6	85	43.3	2	5	248	0.00	29.818 
17:20	47.4	47.4	47.4	86	43.4	2	6	248	0.00	29.818 
17:25	47.3	47.3	47.3	86	43.3	2	5	248	0.00	29.818 
17:30	47.1	47.1	47.1	86	43.1	1	3	248	0.00	29.818 
17:35	47.1	47.1	47.1	86	43.1	1	5	248	0.00	29.818 
17:40	47.0	47.0	47.0	87	43.3	1	5	248	0.00	29.818 
17:45	47.0	47.0	47.0	87	43.3	1	5	248	0.00	29.820 
17:50	47.0	47.0	47.0	87	43.3	1	4	225	0.00	29.820 
17:55	47.0	47.0	47.0	88	43.6	1	6	225	0.00	29.820 
18:00	47.0	47.0	47.0	88	43.6	1	5	248	0.00	29.820 
18:05	47.0	47.0	47.0	88	43.6	2	6	248	0.00	29.820 
18:10	47.0	47.0	47.0	89	43.9	1	4	248	0.00	29.820 
18:15	46.8	46.8	46.8	89	43.7	1	6	248	0.00	29.820 
18:20	46.8	46.8	46.8	89	43.7	1	4	225	0.00	29.820 
18:25	46.8	46.8	46.8	90	44.0	1	5	292	0.00	29.820 
18:30	46.8	46.8	46.8	90	44.0	2	6	225	0.00	29.821 
18:35	46.8	46.8	46.8	90	44.0	1	4	248	0.00	29.821 
18:40	46.7	46.7	46.7	89	43.6	2	6	248	0.00	29.821 
18:45	46.7	46.7	46.7	89	43.6	1	4	248	0.00	29.822 
18:50	46.7	46.7	46.7	89	43.6	1	5	248	0.00	29.822 
18:55	46.5	46.5	46.5	89	43.4	2	6	248	0.00	29.822 
19:00	46.5	46.5	46.5	89	43.4	1	7	248	0.00	29.817 
19:05	46.4	46.4	46.4	88	43.0	1	4	248	0.00	29.817 
19:10	46.4	46.4	46.4	88	43.0	2	5	248	0.00	29.817 
19:15	46.5	46.5	46.5	88	43.1	1	6	248	0.00	29.819 
19:20	46.5	46.5	46.5	89	43.4	1	5	248	0.00	29.819 
19:25	46.5	46.5	46.5	89	43.4	1	4	248	0.00	29.819 
19:30	46.5	46.5	46.5	89	43.4	1	5	248	0.00	29.821 
19:35	46.5	46.5	46.5	89	43.4	2	7	248	0.00	29.821 
19:40	46.5	46.5	46.5	89	43.4	1	4	270	0.00	29.821 
19:45	46.5	46.5	46.5	90	43.7	1	5	248	0.00	29.819 
19:50	46.5	46.5	46.5	90	43.7	1	3	248	0.00	29.819 
19:55	46.5	46.5	46.5	90	43.7	2	9	248	0.00	29.819 
20:00	46.5	46.5	46.5	90	43.7	2	6	248	0.00	29.819 
20:05	46.7	46.7	46.7	90	43.9	2	10	248	0.00	29.819 
20:10	46.7	46.7	46.7	89	43.6	2	9	248	0.00	29.819 
20:15	46.8	46.8	46.8	89	43.7	1	6	248	0.00	29.818 
20:20	46.8	45.2	46.8	89	43.7	4	11	248	0.00	29.818 
20:25	46.7	45.1	46.7	89	43.6	4	11	248	0.00	29.818 
20:30	46.5	46.5	46.5	90	43.7	2	7	248	0.01	29.816 
20:35	46.4	46.4	46.4	91	43.9	2	6	248	0.00	29.816 
20:40	46.2	46.2	46.2	91	43.7	2	9	248	0.00	29.816 
20:45	46.1	46.1	46.1	91	43.6	2	5	248	0.00	29.810 
20:50	46.0	46.0	46.0	92	43.8	2	7	248	0.00	29.810 
20:55	46.0	46.0	46.0	92	43.8	1	4	248	0.00	29.810 
21:00	45.8	45.8	45.8	92	43.6	2	5	248	0.00	29.808 
21:05	45.8	45.8	45.8	92	43.6	1	4	248	0.00	29.808 
21:10	45.7	45.7	45.7	93	43.8	1	4	248	0.01	29.808 
21:15	45.7	45.7	45.7	93	43.8	3	6	248	0.00	29.807 
21:20	45.5	45.5	45.5	93	43.6	2	7	248	0.00	29.807 
21:25	45.5	45.5	45.5	93	43.6	3	7	248	0.01	29.807 
21:30	44.5	41.8	44.5	92	42.3	5	12	270	0.00	29.822 
21:35	43.9	43.9	43.9	92	41.7	3	7	270	0.00	29.822 
21:40	43.5	43.5	43.5	92	41.3	3	6	248	0.00	29.822 
21:45	43.2	41.0	43.2	92	41.0	4	12	248	0.01	29.827 
21:50	42.9	42.9	42.9	92	40.7	2	7	270	0.00	29.827 
21:55	42.8	42.8	42.8	92	40.6	3	11	248	0.00	29.827 
22:00	42.6	42.6	42.6	92	40.4	2	7	248	0.00	29.826 
22:05	42.6	42.6	42.6	92	40.4	1	4	248	0.00	29.826 
22:10	42.5	42.5	42.5	92	40.3	1	4	248	0.00	29.826 
22:15	42.5	42.5	42.5	92	40.3	1	4	248	0.00	29.825 
22:20	42.3	42.3	42.3	92	40.1	1	5	248	0.00	29.825 
22:25	42.3	42.3	42.3	91	39.9	1	4	225	0.00	29.825 
22:30	42.3	42.3	42.3	91	39.9	2	8	248	0.00	29.825 
22:35	42.2	42.2	42.2	91	39.8	2	6	248	0.00	29.825 
22:40	42.2	42.2	42.2	90	39.5	1	5	270	0.00	29.825 
22:45	42.2	42.2	42.2	90	39.5	1	6	248	0.00	29.824 
22:50	42.2	42.2	42.2	90	39.5	1	5	248	0.00	29.824 
22:55	42.1	42.1	42.1	90	39.4	1	5	248	0.00	29.824 
23:00	42.1	42.1	42.1	90	39.4	1	5	248	0.00	29.822 
23:05	42.1	42.1	42.1	90	39.4	1	3	248	0.00	29.822 
23:10	41.9	41.9	41.9	90	39.2	1	4	248	0.00	29.822 
23:15	41.9	41.9	41.9	90	39.2	1	4	248	0.00	29.822 
23:20	41.9	41.9	41.9	90	39.2	1	3	248	0.00	29.822 
23:25	41.9	41.9	41.9	90	39.2	0	2	248	0.00	29.822 
23:30	41.9	41.9	41.9	90	39.2	1	4	248	0.00	29.827 
23:35	41.9	41.9	41.9	90	39.2	1	4	248	0.00	29.827 
23:40	41.9	41.9	41.9	90	39.2	1	4	248	0.00	29.827 
23:45	41.9	41.9	41.9	91	39.5	1	5	248	0.00	29.827 
23:50	41.9	41.9	41.9	88	38.6	2	5	248	0.00	29.827 
23:55	42.1	42.1	42.1	91	39.7	2	6	248	0.00	29.827 

CoCoRaHS
IN-AL-39
A2 Web Hosting
Creative Commons License
GoDaddy
search engine by freefind advanced

loaded 2018-11-17 19:11:17 • last modified 2010-11-18 10:43:29
Privacy PolicyDisclaimer
• wx.awcolley.com is powered by PmWiki v.2002016 •
• all content (unless otherwise noted) © 2018 A W Colley